sensor_id;sensor_type;location;lat;lon;timestamp;P1;durP1;ratioP1;P2;durP2;ratioP2
63193;SDS011;49289;51.670;5.624;2023-02-21T00:00:03;71.40;;;38.20;;
63193;SDS011;49289;51.670;5.624;2023-02-21T00:01:51;73.30;;;39.00;;
63193;SDS011;49289;51.670;5.624;2023-02-21T00:03:39;70.50;;;38.60;;
63193;SDS011;49289;51.670;5.624;2023-02-21T00:05:28;75.60;;;39.60;;
63193;SDS011;49289;51.670;5.624;2023-02-21T00:07:15;70.40;;;38.90;;
63193;SDS011;49289;51.670;5.624;2023-02-21T00:09:03;74.80;;;39.20;;
63193;SDS011;49289;51.670;5.624;2023-02-21T00:10:51;71.00;;;38.30;;
63193;SDS011;49289;51.670;5.624;2023-02-21T00:12:39;72.80;;;40.10;;
63193;SDS011;49289;51.670;5.624;2023-02-21T00:14:27;75.90;;;39.70;;
63193;SDS011;49289;51.670;5.624;2023-02-21T00:16:18;77.00;;;40.60;;
63193;SDS011;49289;51.670;5.624;2023-02-21T00:18:05;76.10;;;40.70;;
63193;SDS011;49289;51.670;5.624;2023-02-21T00:19:52;78.80;;;40.80;;
63193;SDS011;49289;51.670;5.624;2023-02-21T00:21:39;79.70;;;42.20;;
63193;SDS011;49289;51.670;5.624;2023-02-21T00:23:26;79.10;;;41.60;;
63193;SDS011;49289;51.670;5.624;2023-02-21T00:25:13;83.00;;;43.80;;
63193;SDS011;49289;51.670;5.624;2023-02-21T00:27:02;81.40;;;42.30;;
63193;SDS011;49289;51.670;5.624;2023-02-21T00:28:49;79.70;;;42.20;;
63193;SDS011;49289;51.670;5.624;2023-02-21T00:30:38;82.00;;;42.60;;
63193;SDS011;49289;51.670;5.624;2023-02-21T00:32:26;83.40;;;43.30;;
63193;SDS011;49289;51.670;5.624;2023-02-21T00:34:13;87.20;;;43.10;;
63193;SDS011;49289;51.670;5.624;2023-02-21T00:36:00;81.30;;;42.40;;
63193;SDS011;49289;51.670;5.624;2023-02-21T00:37:47;82.40;;;42.80;;
63193;SDS011;49289;51.670;5.624;2023-02-21T00:39:34;80.50;;;41.30;;
63193;SDS011;49289;51.670;5.624;2023-02-21T00:41:21;83.40;;;41.80;;
63193;SDS011;49289;51.670;5.624;2023-02-21T00:43:08;76.30;;;40.20;;
63193;SDS011;49289;51.670;5.624;2023-02-21T00:44:55;81.60;;;40.90;;
63193;SDS011;49289;51.670;5.624;2023-02-21T00:46:42;77.40;;;41.80;;
63193;SDS011;49289;51.670;5.624;2023-02-21T00:48:29;82.10;;;41.90;;
63193;SDS011;49289;51.670;5.624;2023-02-21T00:50:16;78.40;;;40.40;;
63193;SDS011;49289;51.670;5.624;2023-02-21T00:52:03;82.30;;;41.30;;
63193;SDS011;49289;51.670;5.624;2023-02-21T00:53:50;83.50;;;41.30;;
63193;SDS011;49289;51.670;5.624;2023-02-21T00:55:38;78.90;;;40.90;;
63193;SDS011;49289;51.670;5.624;2023-02-21T00:57:25;81.60;;;42.00;;
63193;SDS011;49289;51.670;5.624;2023-02-21T00:59:12;84.70;;;42.30;;
63193;SDS011;49289;51.670;5.624;2023-02-21T01:00:59;82.70;;;42.80;;
63193;SDS011;49289;51.670;5.624;2023-02-21T01:02:46;82.70;;;41.60;;
63193;SDS011;49289;51.670;5.624;2023-02-21T01:04:33;88.60;;;43.40;;
63193;SDS011;49289;51.670;5.624;2023-02-21T01:06:20;84.60;;;43.20;;
63193;SDS011;49289;51.670;5.624;2023-02-21T01:08:08;95.30;;;44.10;;
63193;SDS011;49289;51.670;5.624;2023-02-21T01:09:56;88.20;;;44.60;;
63193;SDS011;49289;51.670;5.624;2023-02-21T01:11:44;89.70;;;44.30;;
63193;SDS011;49289;51.670;5.624;2023-02-21T01:13:32;91.50;;;44.30;;
63193;SDS011;49289;51.670;5.624;2023-02-21T01:15:20;87.80;;;43.40;;
63193;SDS011;49289;51.670;5.624;2023-02-21T01:17:08;92.40;;;43.60;;
63193;SDS011;49289;51.670;5.624;2023-02-21T01:18:56;90.50;;;43.60;;
63193;SDS011;49289;51.670;5.624;2023-02-21T01:20:44;85.30;;;42.20;;
63193;SDS011;49289;51.670;5.624;2023-02-21T01:22:32;83.10;;;41.10;;
63193;SDS011;49289;51.670;5.624;2023-02-21T01:24:20;84.20;;;42.40;;
63193;SDS011;49289;51.670;5.624;2023-02-21T01:26:08;85.30;;;40.90;;
63193;SDS011;49289;51.670;5.624;2023-02-21T01:27:56;83.00;;;42.50;;
63193;SDS011;49289;51.670;5.624;2023-02-21T01:29:43;84.20;;;40.70;;
63193;SDS011;49289;51.670;5.624;2023-02-21T01:31:30;79.30;;;40.20;;
63193;SDS011;49289;51.670;5.624;2023-02-21T01:33:18;82.80;;;40.90;;
63193;SDS011;49289;51.670;5.624;2023-02-21T01:35:06;85.80;;;42.90;;
63193;SDS011;49289;51.670;5.624;2023-02-21T01:36:54;88.90;;;43.10;;
63193;SDS011;49289;51.670;5.624;2023-02-21T01:38:42;88.50;;;43.20;;
63193;SDS011;49289;51.670;5.624;2023-02-21T01:40:30;89.90;;;43.20;;
63193;SDS011;49289;51.670;5.624;2023-02-21T01:42:18;100.10;;;46.30;;
63193;SDS011;49289;51.670;5.624;2023-02-21T01:44:06;94.50;;;45.30;;
63193;SDS011;49289;51.670;5.624;2023-02-21T01:46:08;94.30;;;44.40;;
63193;SDS011;49289;51.670;5.624;2023-02-21T01:47:55;97.20;;;45.30;;
63193;SDS011;49289;51.670;5.624;2023-02-21T01:49:42;92.70;;;42.60;;
63193;SDS011;49289;51.670;5.624;2023-02-21T01:51:30;87.30;;;41.50;;
63193;SDS011;49289;51.670;5.624;2023-02-21T01:53:18;80.70;;;38.40;;
63193;SDS011;49289;51.670;5.624;2023-02-21T01:55:03;81.30;;;40.10;;
63193;SDS011;49289;51.670;5.624;2023-02-21T01:56:51;86.40;;;39.50;;
63193;SDS011;49289;51.670;5.624;2023-02-21T01:58:40;80.10;;;39.10;;
63193;SDS011;49289;51.670;5.624;2023-02-21T02:00:28;78.20;;;38.40;;
63193;SDS011;49289;51.670;5.624;2023-02-21T02:02:16;69.90;;;35.10;;
63193;SDS011;49289;51.670;5.624;2023-02-21T02:04:03;67.20;;;34.40;;
63193;SDS011;49289;51.670;5.624;2023-02-21T02:05:52;72.20;;;35.30;;
63193;SDS011;49289;51.670;5.624;2023-02-21T02:07:38;73.10;;;35.70;;
63193;SDS011;49289;51.670;5.624;2023-02-21T02:09:26;75.00;;;37.00;;
63193;SDS011;49289;51.670;5.624;2023-02-21T02:11:15;72.00;;;35.70;;
63193;SDS011;49289;51.670;5.624;2023-02-21T02:15:17;78.40;;;38.60;;
63193;SDS011;49289;51.670;5.624;2023-02-21T02:17:28;73.10;;;35.50;;
63193;SDS011;49289;51.670;5.624;2023-02-21T02:23:59;83.10;;;38.30;;
63193;SDS011;49289;51.670;5.624;2023-02-21T02:28:02;80.20;;;38.70;;
63193;SDS011;49289;51.670;5.624;2023-02-21T02:32:06;79.90;;;38.90;;
63193;SDS011;49289;51.670;5.624;2023-02-21T02:36:10;82.00;;;37.40;;
63193;SDS011;49289;51.670;5.624;2023-02-21T02:37:58;78.00;;;37.00;;
63193;SDS011;49289;51.670;5.624;2023-02-21T02:39:47;80.20;;;37.00;;
63193;SDS011;49289;51.670;5.624;2023-02-21T02:41:37;72.80;;;35.20;;
63193;SDS011;49289;51.670;5.624;2023-02-21T02:43:25;71.60;;;35.70;;
63193;SDS011;49289;51.670;5.624;2023-02-21T02:45:12;75.60;;;34.80;;
63193;SDS011;49289;51.670;5.624;2023-02-21T02:47:00;70.20;;;33.30;;
63193;SDS011;49289;51.670;5.624;2023-02-21T02:48:49;62.90;;;31.70;;
63193;SDS011;49289;51.670;5.624;2023-02-21T02:50:36;67.00;;;32.80;;
63193;SDS011;49289;51.670;5.624;2023-02-21T02:52:24;68.40;;;33.00;;
63193;SDS011;49289;51.670;5.624;2023-02-21T02:54:11;66.50;;;32.80;;
63193;SDS011;49289;51.670;5.624;2023-02-21T02:56:00;66.90;;;31.70;;
63193;SDS011;49289;51.670;5.624;2023-02-21T02:57:46;67.50;;;31.90;;
63193;SDS011;49289;51.670;5.624;2023-02-21T02:59:33;59.10;;;30.90;;
63193;SDS011;49289;51.670;5.624;2023-02-21T03:01:26;64.90;;;31.80;;
63193;SDS011;49289;51.670;5.624;2023-02-21T03:03:32;60.10;;;30.10;;
63193;SDS011;49289;51.670;5.624;2023-02-21T03:05:26;61.00;;;31.40;;
63193;SDS011;49289;51.670;5.624;2023-02-21T03:07:16;62.40;;;30.50;;
63193;SDS011;49289;51.670;5.624;2023-02-21T03:09:07;60.80;;;29.60;;
63193;SDS011;49289;51.670;5.624;2023-02-21T03:10:55;62.70;;;29.90;;
63193;SDS011;49289;51.670;5.624;2023-02-21T03:12:43;60.70;;;29.80;;
63193;SDS011;49289;51.670;5.624;2023-02-21T03:14:29;64.10;;;30.40;;
63193;SDS011;49289;51.670;5.624;2023-02-21T03:16:17;60.70;;;29.90;;
63193;SDS011;49289;51.670;5.624;2023-02-21T03:18:04;60.50;;;29.90;;
63193;SDS011;49289;51.670;5.624;2023-02-21T03:19:51;62.70;;;31.60;;
63193;SDS011;49289;51.670;5.624;2023-02-21T03:21:39;60.50;;;29.80;;
63193;SDS011;49289;51.670;5.624;2023-02-21T03:23:26;58.00;;;28.60;;
63193;SDS011;49289;51.670;5.624;2023-02-21T03:25:13;58.30;;;29.30;;
63193;SDS011;49289;51.670;5.624;2023-02-21T03:27:01;62.60;;;30.40;;
63193;SDS011;49289;51.670;5.624;2023-02-21T03:28:48;62.50;;;29.90;;
63193;SDS011;49289;51.670;5.624;2023-02-21T03:30:36;60.10;;;30.40;;
63193;SDS011;49289;51.670;5.624;2023-02-21T03:32:23;58.20;;;29.30;;
63193;SDS011;49289;51.670;5.624;2023-02-21T03:34:10;61.10;;;30.10;;
63193;SDS011;49289;51.670;5.624;2023-02-21T03:35:57;62.20;;;30.20;;
63193;SDS011;49289;51.670;5.624;2023-02-21T03:37:45;62.90;;;30.60;;
63193;SDS011;49289;51.670;5.624;2023-02-21T03:39:31;63.00;;;30.20;;
63193;SDS011;49289;51.670;5.624;2023-02-21T03:41:18;62.00;;;30.50;;
63193;SDS011;49289;51.670;5.624;2023-02-21T03:43:06;63.30;;;30.00;;
63193;SDS011;49289;51.670;5.624;2023-02-21T03:44:53;61.40;;;30.30;;
63193;SDS011;49289;51.670;5.624;2023-02-21T03:46:41;58.10;;;29.70;;
63193;SDS011;49289;51.670;5.624;2023-02-21T03:48:29;62.90;;;30.40;;
63193;SDS011;49289;51.670;5.624;2023-02-21T03:50:16;64.00;;;30.60;;
63193;SDS011;49289;51.670;5.624;2023-02-21T03:52:04;65.70;;;30.90;;
63193;SDS011;49289;51.670;5.624;2023-02-21T03:53:51;65.60;;;31.50;;
63193;SDS011;49289;51.670;5.624;2023-02-21T03:55:39;66.60;;;31.20;;
63193;SDS011;49289;51.670;5.624;2023-02-21T03:57:27;66.50;;;31.20;;
63193;SDS011;49289;51.670;5.624;2023-02-21T03:59:15;68.10;;;31.00;;
63193;SDS011;49289;51.670;5.624;2023-02-21T04:01:03;62.00;;;30.40;;
63193;SDS011;49289;51.670;5.624;2023-02-21T04:02:51;67.30;;;30.60;;
63193;SDS011;49289;51.670;5.624;2023-02-21T04:04:39;68.70;;;31.10;;
63193;SDS011;49289;51.670;5.624;2023-02-21T04:06:27;63.30;;;30.10;;
63193;SDS011;49289;51.670;5.624;2023-02-21T04:08:16;69.20;;;31.90;;
63193;SDS011;49289;51.670;5.624;2023-02-21T04:10:03;73.00;;;31.90;;
63193;SDS011;49289;51.670;5.624;2023-02-21T04:11:52;76.00;;;33.30;;
63193;SDS011;49289;51.670;5.624;2023-02-21T04:13:40;80.50;;;33.00;;
63193;SDS011;49289;51.670;5.624;2023-02-21T04:15:27;78.10;;;32.80;;
63193;SDS011;49289;51.670;5.624;2023-02-21T04:17:14;76.30;;;32.70;;
63193;SDS011;49289;51.670;5.624;2023-02-21T04:19:01;76.70;;;33.00;;
63193;SDS011;49289;51.670;5.624;2023-02-21T04:20:48;78.70;;;32.20;;
63193;SDS011;49289;51.670;5.624;2023-02-21T04:22:35;77.50;;;33.00;;
63193;SDS011;49289;51.670;5.624;2023-02-21T04:24:22;81.10;;;33.50;;
63193;SDS011;49289;51.670;5.624;2023-02-21T04:26:10;78.10;;;32.90;;
63193;SDS011;49289;51.670;5.624;2023-02-21T04:27:58;80.70;;;33.70;;
63193;SDS011;49289;51.670;5.624;2023-02-21T04:29:45;75.50;;;32.10;;
63193;SDS011;49289;51.670;5.624;2023-02-21T04:31:33;74.30;;;32.50;;
63193;SDS011;49289;51.670;5.624;2023-02-21T04:33:21;80.30;;;32.90;;
63193;SDS011;49289;51.670;5.624;2023-02-21T04:35:09;75.90;;;32.90;;
63193;SDS011;49289;51.670;5.624;2023-02-21T04:36:56;77.60;;;33.00;;
63193;SDS011;49289;51.670;5.624;2023-02-21T04:38:43;83.40;;;33.70;;
63193;SDS011;49289;51.670;5.624;2023-02-21T04:40:30;82.90;;;34.70;;
63193;SDS011;49289;51.670;5.624;2023-02-21T04:42:17;83.90;;;33.50;;
63193;SDS011;49289;51.670;5.624;2023-02-21T04:44:04;83.20;;;33.70;;
63193;SDS011;49289;51.670;5.624;2023-02-21T04:45:52;89.80;;;34.10;;
63193;SDS011;49289;51.670;5.624;2023-02-21T04:47:40;85.70;;;34.70;;
63193;SDS011;49289;51.670;5.624;2023-02-21T04:49:27;81.70;;;34.20;;
63193;SDS011;49289;51.670;5.624;2023-02-21T04:51:14;85.10;;;33.90;;
63193;SDS011;49289;51.670;5.624;2023-02-21T04:53:01;86.00;;;34.70;;
63193;SDS011;49289;51.670;5.624;2023-02-21T04:54:48;84.40;;;34.40;;
63193;SDS011;49289;51.670;5.624;2023-02-21T04:56:36;84.70;;;33.90;;
63193;SDS011;49289;51.670;5.624;2023-02-21T04:58:24;85.40;;;34.60;;
63193;SDS011;49289;51.670;5.624;2023-02-21T05:00:13;87.80;;;35.30;;
63193;SDS011;49289;51.670;5.624;2023-02-21T05:02:01;95.30;;;34.90;;
63193;SDS011;49289;51.670;5.624;2023-02-21T05:03:49;88.10;;;34.70;;
63193;SDS011;49289;51.670;5.624;2023-02-21T05:05:37;89.90;;;35.60;;
63193;SDS011;49289;51.670;5.624;2023-02-21T05:07:25;94.30;;;35.40;;
63193;SDS011;49289;51.670;5.624;2023-02-21T05:09:13;89.20;;;35.90;;
63193;SDS011;49289;51.670;5.624;2023-02-21T05:11:01;95.80;;;36.00;;
63193;SDS011;49289;51.670;5.624;2023-02-21T05:12:49;93.50;;;35.70;;
63193;SDS011;49289;51.670;5.624;2023-02-21T05:14:37;98.50;;;36.40;;
63193;SDS011;49289;51.670;5.624;2023-02-21T05:16:25;94.30;;;35.60;;
63193;SDS011;49289;51.670;5.624;2023-02-21T05:18:13;88.60;;;35.20;;
63193;SDS011;49289;51.670;5.624;2023-02-21T05:20:00;87.90;;;33.80;;
63193;SDS011;49289;51.670;5.624;2023-02-21T05:21:47;94.50;;;34.90;;
63193;SDS011;49289;51.670;5.624;2023-02-21T05:23:35;95.40;;;35.80;;
63193;SDS011;49289;51.670;5.624;2023-02-21T05:25:22;87.50;;;34.10;;
63193;SDS011;49289;51.670;5.624;2023-02-21T05:27:09;92.90;;;33.70;;
63193;SDS011;49289;51.670;5.624;2023-02-21T05:28:57;85.10;;;33.70;;
63193;SDS011;49289;51.670;5.624;2023-02-21T05:30:44;93.80;;;35.30;;
63193;SDS011;49289;51.670;5.624;2023-02-21T05:32:31;94.60;;;34.60;;
63193;SDS011;49289;51.670;5.624;2023-02-21T05:34:18;95.40;;;36.80;;
63193;SDS011;49289;51.670;5.624;2023-02-21T05:36:05;93.40;;;34.20;;
63193;SDS011;49289;51.670;5.624;2023-02-21T05:37:52;87.50;;;34.50;;
63193;SDS011;49289;51.670;5.624;2023-02-21T05:39:39;89.00;;;33.80;;
63193;SDS011;49289;51.670;5.624;2023-02-21T05:41:26;92.20;;;35.20;;
63193;SDS011;49289;51.670;5.624;2023-02-21T05:43:13;92.80;;;34.60;;
63193;SDS011;49289;51.670;5.624;2023-02-21T05:45:00;91.40;;;35.70;;
63193;SDS011;49289;51.670;5.624;2023-02-21T05:46:47;92.80;;;35.00;;
63193;SDS011;49289;51.670;5.624;2023-02-21T05:48:34;91.90;;;34.40;;
63193;SDS011;49289;51.670;5.624;2023-02-21T05:50:21;95.20;;;35.20;;
63193;SDS011;49289;51.670;5.624;2023-02-21T05:52:09;91.80;;;35.00;;
63193;SDS011;49289;51.670;5.624;2023-02-21T05:53:55;92.70;;;35.40;;
63193;SDS011;49289;51.670;5.624;2023-02-21T05:55:43;89.70;;;34.80;;
63193;SDS011;49289;51.670;5.624;2023-02-21T05:57:31;91.60;;;36.30;;
63193;SDS011;49289;51.670;5.624;2023-02-21T05:59:23;98.40;;;35.80;;
63193;SDS011;49289;51.670;5.624;2023-02-21T06:01:11;99.00;;;37.90;;
63193;SDS011;49289;51.670;5.624;2023-02-21T06:02:59;113.00;;;39.00;;
63193;SDS011;49289;51.670;5.624;2023-02-21T06:04:47;120.50;;;38.70;;
63193;SDS011;49289;51.670;5.624;2023-02-21T06:06:34;112.10;;;38.00;;
63193;SDS011;49289;51.670;5.624;2023-02-21T06:08:21;117.50;;;39.10;;
63193;SDS011;49289;51.670;5.624;2023-02-21T06:10:08;112.10;;;37.70;;
63193;SDS011;49289;51.670;5.624;2023-02-21T06:11:55;109.20;;;38.20;;
63193;SDS011;49289;51.670;5.624;2023-02-21T06:13:42;112.00;;;39.30;;
63193;SDS011;49289;51.670;5.624;2023-02-21T06:15:29;119.50;;;39.00;;
63193;SDS011;49289;51.670;5.624;2023-02-21T06:17:16;116.80;;;38.10;;
63193;SDS011;49289;51.670;5.624;2023-02-21T06:19:04;112.50;;;37.90;;
63193;SDS011;49289;51.670;5.624;2023-02-21T06:20:50;118.10;;;38.80;;
63193;SDS011;49289;51.670;5.624;2023-02-21T06:22:37;117.60;;;38.20;;
63193;SDS011;49289;51.670;5.624;2023-02-21T06:24:24;119.70;;;39.40;;
63193;SDS011;49289;51.670;5.624;2023-02-21T06:26:11;129.40;;;38.40;;
63193;SDS011;49289;51.670;5.624;2023-02-21T06:27:58;135.20;;;40.00;;
63193;SDS011;49289;51.670;5.624;2023-02-21T06:29:45;127.30;;;39.70;;
63193;SDS011;49289;51.670;5.624;2023-02-21T06:31:32;124.30;;;38.80;;
63193;SDS011;49289;51.670;5.624;2023-02-21T06:33:19;124.40;;;39.70;;
63193;SDS011;49289;51.670;5.624;2023-02-21T06:35:06;119.10;;;38.10;;
63193;SDS011;49289;51.670;5.624;2023-02-21T06:36:55;123.80;;;39.20;;
63193;SDS011;49289;51.670;5.624;2023-02-21T06:38:44;125.60;;;38.20;;
63193;SDS011;49289;51.670;5.624;2023-02-21T06:40:32;116.30;;;37.20;;
63193;SDS011;49289;51.670;5.624;2023-02-21T06:42:20;121.20;;;37.90;;
63193;SDS011;49289;51.670;5.624;2023-02-21T06:44:08;126.70;;;38.30;;
63193;SDS011;49289;51.670;5.624;2023-02-21T06:45:55;113.70;;;37.60;;
63193;SDS011;49289;51.670;5.624;2023-02-21T06:47:42;111.80;;;36.70;;
63193;SDS011;49289;51.670;5.624;2023-02-21T06:49:29;121.90;;;36.40;;
63193;SDS011;49289;51.670;5.624;2023-02-21T06:51:16;120.60;;;37.40;;
63193;SDS011;49289;51.670;5.624;2023-02-21T06:53:04;119.40;;;36.40;;
63193;SDS011;49289;51.670;5.624;2023-02-21T06:54:54;120.90;;;35.70;;
63193;SDS011;49289;51.670;5.624;2023-02-21T06:56:41;104.40;;;35.20;;
63193;SDS011;49289;51.670;5.624;2023-02-21T06:58:28;109.40;;;36.80;;
63193;SDS011;49289;51.670;5.624;2023-02-21T07:00:16;107.00;;;35.90;;
63193;SDS011;49289;51.670;5.624;2023-02-21T07:02:03;112.30;;;35.90;;
63193;SDS011;49289;51.670;5.624;2023-02-21T07:03:50;116.40;;;34.50;;
63193;SDS011;49289;51.670;5.624;2023-02-21T07:05:38;104.10;;;34.10;;
63193;SDS011;49289;51.670;5.624;2023-02-21T07:07:27;105.50;;;34.30;;
63193;SDS011;49289;51.670;5.624;2023-02-21T07:09:15;110.30;;;34.10;;
63193;SDS011;49289;51.670;5.624;2023-02-21T07:11:03;111.50;;;35.40;;
63193;SDS011;49289;51.670;5.624;2023-02-21T07:12:51;105.30;;;33.80;;
63193;SDS011;49289;51.670;5.624;2023-02-21T07:14:39;105.50;;;34.10;;
63193;SDS011;49289;51.670;5.624;2023-02-21T07:16:27;108.20;;;34.10;;
63193;SDS011;49289;51.670;5.624;2023-02-21T07:18:14;114.00;;;35.40;;
63193;SDS011;49289;51.670;5.624;2023-02-21T07:20:01;116.20;;;35.00;;
63193;SDS011;49289;51.670;5.624;2023-02-21T07:21:49;109.80;;;34.10;;
63193;SDS011;49289;51.670;5.624;2023-02-21T07:23:36;115.70;;;36.30;;
63193;SDS011;49289;51.670;5.624;2023-02-21T07:25:23;109.70;;;34.50;;
63193;SDS011;49289;51.670;5.624;2023-02-21T07:27:11;117.00;;;35.00;;
63193;SDS011;49289;51.670;5.624;2023-02-21T07:28:59;117.20;;;35.00;;
63193;SDS011;49289;51.670;5.624;2023-02-21T07:30:47;118.70;;;35.00;;
63193;SDS011;49289;51.670;5.624;2023-02-21T07:32:35;116.50;;;34.30;;
63193;SDS011;49289;51.670;5.624;2023-02-21T07:34:23;117.10;;;33.90;;
63193;SDS011;49289;51.670;5.624;2023-02-21T07:36:11;116.90;;;33.70;;
63193;SDS011;49289;51.670;5.624;2023-02-21T07:37:59;112.20;;;33.20;;
63193;SDS011;49289;51.670;5.624;2023-02-21T07:39:47;114.20;;;33.50;;
63193;SDS011;49289;51.670;5.624;2023-02-21T07:41:36;111.30;;;31.90;;
63193;SDS011;49289;51.670;5.624;2023-02-21T07:43:24;113.70;;;32.50;;
63193;SDS011;49289;51.670;5.624;2023-02-21T07:45:12;109.20;;;31.50;;
63193;SDS011;49289;51.670;5.624;2023-02-21T07:47:00;106.60;;;31.30;;
63193;SDS011;49289;51.670;5.624;2023-02-21T07:48:47;102.30;;;32.40;;
63193;SDS011;49289;51.670;5.624;2023-02-21T07:50:34;107.30;;;30.60;;
63193;SDS011;49289;51.670;5.624;2023-02-21T07:52:21;90.00;;;29.30;;
63193;SDS011;49289;51.670;5.624;2023-02-21T07:54:08;94.20;;;29.40;;
63193;SDS011;49289;51.670;5.624;2023-02-21T07:55:55;96.70;;;29.10;;
63193;SDS011;49289;51.670;5.624;2023-02-21T07:57:42;86.40;;;29.30;;
63193;SDS011;49289;51.670;5.624;2023-02-21T07:59:29;91.10;;;28.40;;
63193;SDS011;49289;51.670;5.624;2023-02-21T08:01:20;98.90;;;29.40;;
63193;SDS011;49289;51.670;5.624;2023-02-21T08:03:03;98.50;;;29.20;;
63193;SDS011;49289;51.670;5.624;2023-02-21T08:04:50;93.90;;;28.80;;
63193;SDS011;49289;51.670;5.624;2023-02-21T08:06:38;95.90;;;29.00;;
63193;SDS011;49289;51.670;5.624;2023-02-21T08:08:26;100.90;;;29.50;;
63193;SDS011;49289;51.670;5.624;2023-02-21T08:10:18;96.60;;;28.30;;
63193;SDS011;49289;51.670;5.624;2023-02-21T08:12:03;93.10;;;28.80;;
63193;SDS011;49289;51.670;5.624;2023-02-21T08:13:51;93.70;;;28.30;;
63193;SDS011;49289;51.670;5.624;2023-02-21T08:15:39;105.40;;;27.30;;
63193;SDS011;49289;51.670;5.624;2023-02-21T08:17:28;100.00;;;27.00;;
63193;SDS011;49289;51.670;5.624;2023-02-21T08:19:16;82.80;;;27.50;;
63193;SDS011;49289;51.670;5.624;2023-02-21T08:21:06;79.60;;;27.40;;
63193;SDS011;49289;51.670;5.624;2023-02-21T08:22:52;90.40;;;25.90;;
63193;SDS011;49289;51.670;5.624;2023-02-21T08:24:39;88.90;;;25.00;;
63193;SDS011;49289;51.670;5.624;2023-02-21T08:26:28;75.20;;;25.20;;
63193;SDS011;49289;51.670;5.624;2023-02-21T08:28:15;66.70;;;24.10;;
63193;SDS011;49289;51.670;5.624;2023-02-21T08:30:02;66.70;;;22.90;;
63193;SDS011;49289;51.670;5.624;2023-02-21T08:31:50;64.70;;;23.80;;
63193;SDS011;49289;51.670;5.624;2023-02-21T08:33:37;66.80;;;21.90;;
63193;SDS011;49289;51.670;5.624;2023-02-21T08:35:24;65.60;;;22.50;;
63193;SDS011;49289;51.670;5.624;2023-02-21T08:37:11;48.00;;;20.70;;
63193;SDS011;49289;51.670;5.624;2023-02-21T08:38:58;59.90;;;21.50;;
63193;SDS011;49289;51.670;5.624;2023-02-21T08:40:45;56.60;;;20.70;;
63193;SDS011;49289;51.670;5.624;2023-02-21T08:42:32;54.20;;;20.30;;
63193;SDS011;49289;51.670;5.624;2023-02-21T08:44:19;57.70;;;20.40;;
63193;SDS011;49289;51.670;5.624;2023-02-21T08:46:06;54.30;;;20.00;;
63193;SDS011;49289;51.670;5.624;2023-02-21T08:47:55;56.50;;;20.10;;
63193;SDS011;49289;51.670;5.624;2023-02-21T08:49:43;56.20;;;20.20;;
63193;SDS011;49289;51.670;5.624;2023-02-21T08:51:31;71.10;;;20.50;;
63193;SDS011;49289;51.670;5.624;2023-02-21T08:53:18;67.10;;;21.70;;
63193;SDS011;49289;51.670;5.624;2023-02-21T08:55:06;55.10;;;19.10;;
63193;SDS011;49289;51.670;5.624;2023-02-21T08:56:54;54.20;;;19.70;;
63193;SDS011;49289;51.670;5.624;2023-02-21T08:58:42;55.70;;;18.20;;
63193;SDS011;49289;51.670;5.624;2023-02-21T09:00:31;55.80;;;18.40;;
63193;SDS011;49289;51.670;5.624;2023-02-21T09:02:21;57.70;;;18.40;;
63193;SDS011;49289;51.670;5.624;2023-02-21T09:04:09;55.10;;;18.00;;
63193;SDS011;49289;51.670;5.624;2023-02-21T09:05:56;52.60;;;18.10;;
63193;SDS011;49289;51.670;5.624;2023-02-21T09:07:43;54.30;;;17.70;;
63193;SDS011;49289;51.670;5.624;2023-02-21T09:09:32;49.80;;;18.00;;
63193;SDS011;49289;51.670;5.624;2023-02-21T09:11:22;47.10;;;16.90;;
63193;SDS011;49289;51.670;5.624;2023-02-21T09:13:10;49.70;;;17.00;;
63193;SDS011;49289;51.670;5.624;2023-02-21T09:14:58;47.70;;;16.70;;
63193;SDS011;49289;51.670;5.624;2023-02-21T09:16:47;43.90;;;16.10;;
63193;SDS011;49289;51.670;5.624;2023-02-21T09:18:35;38.50;;;14.80;;
63193;SDS011;49289;51.670;5.624;2023-02-21T09:20:24;44.50;;;16.60;;
63193;SDS011;49289;51.670;5.624;2023-02-21T09:22:11;41.70;;;15.90;;
63193;SDS011;49289;51.670;5.624;2023-02-21T09:23:58;40.10;;;15.70;;
63193;SDS011;49289;51.670;5.624;2023-02-21T09:25:45;41.20;;;15.00;;
63193;SDS011;49289;51.670;5.624;2023-02-21T09:27:32;45.70;;;16.10;;
63193;SDS011;49289;51.670;5.624;2023-02-21T09:29:19;42.30;;;16.10;;
63193;SDS011;49289;51.670;5.624;2023-02-21T09:31:06;39.30;;;15.40;;
63193;SDS011;49289;51.670;5.624;2023-02-21T09:32:55;38.20;;;15.00;;
63193;SDS011;49289;51.670;5.624;2023-02-21T09:34:42;35.70;;;15.10;;
63193;SDS011;49289;51.670;5.624;2023-02-21T09:36:30;37.60;;;14.60;;
63193;SDS011;49289;51.670;5.624;2023-02-21T09:38:20;35.40;;;14.40;;
63193;SDS011;49289;51.670;5.624;2023-02-21T09:40:09;37.50;;;14.60;;
63193;SDS011;49289;51.670;5.624;2023-02-21T09:41:58;36.60;;;14.40;;
63193;SDS011;49289;51.670;5.624;2023-02-21T09:43:46;37.50;;;14.30;;
63193;SDS011;49289;51.670;5.624;2023-02-21T09:45:33;34.40;;;14.00;;
63193;SDS011;49289;51.670;5.624;2023-02-21T09:47:21;34.70;;;14.20;;
63193;SDS011;49289;51.670;5.624;2023-02-21T09:49:10;33.10;;;14.00;;
63193;SDS011;49289;51.670;5.624;2023-02-21T09:50:57;32.70;;;14.20;;
63193;SDS011;49289;51.670;5.624;2023-02-21T09:52:43;32.10;;;13.70;;
63193;SDS011;49289;51.670;5.624;2023-02-21T09:54:32;31.90;;;13.70;;
63193;SDS011;49289;51.670;5.624;2023-02-21T09:56:20;29.80;;;13.80;;
63193;SDS011;49289;51.670;5.624;2023-02-21T09:58:07;28.90;;;13.30;;
63193;SDS011;49289;51.670;5.624;2023-02-21T09:59:55;25.50;;;12.50;;
63193;SDS011;49289;51.670;5.624;2023-02-21T10:01:45;29.00;;;13.40;;
63193;SDS011;49289;51.670;5.624;2023-02-21T10:03:38;29.70;;;13.80;;
63193;SDS011;49289;51.670;5.624;2023-02-21T10:05:28;28.20;;;13.40;;
63193;SDS011;49289;51.670;5.624;2023-02-21T10:07:18;28.70;;;13.20;;
63193;SDS011;49289;51.670;5.624;2023-02-21T10:09:07;29.90;;;13.70;;
63193;SDS011;49289;51.670;5.624;2023-02-21T10:10:55;32.00;;;14.00;;
63193;SDS011;49289;51.670;5.624;2023-02-21T10:12:42;30.50;;;13.90;;
63193;SDS011;49289;51.670;5.624;2023-02-21T10:14:32;30.60;;;14.40;;
63193;SDS011;49289;51.670;5.624;2023-02-21T10:16:20;28.20;;;13.50;;
63193;SDS011;49289;51.670;5.624;2023-02-21T10:18:07;32.10;;;13.80;;
63193;SDS011;49289;51.670;5.624;2023-02-21T10:19:57;32.90;;;14.20;;
63193;SDS011;49289;51.670;5.624;2023-02-21T10:20:42;32.10;;;14.40;;
63193;SDS011;49289;51.670;5.624;2023-02-21T10:22:32;30.50;;;13.80;;
63193;SDS011;49289;51.670;5.624;2023-02-21T10:24:18;30.40;;;13.50;;
63193;SDS011;49289;51.670;5.624;2023-02-21T10:26:06;31.70;;;15.20;;
63193;SDS011;49289;51.670;5.624;2023-02-21T10:27:53;33.70;;;15.80;;
63193;SDS011;49289;51.670;5.624;2023-02-21T10:29:42;30.00;;;14.20;;
63193;SDS011;49289;51.670;5.624;2023-02-21T10:31:30;33.30;;;14.50;;
63193;SDS011;49289;51.670;5.624;2023-02-21T10:33:16;29.20;;;13.80;;
63193;SDS011;49289;51.670;5.624;2023-02-21T10:35:03;31.90;;;14.10;;
63193;SDS011;49289;51.670;5.624;2023-02-21T10:36:54;26.80;;;13.80;;
63193;SDS011;49289;51.670;5.624;2023-02-21T10:38:42;28.20;;;14.10;;
63193;SDS011;49289;51.670;5.624;2023-02-21T10:40:33;26.80;;;13.90;;